Airfield :
LOGIN :

Register | Disclaimer

   EN    FR    IT 

 










Legend :    VFR   Marginal VFR   IFR   Intensive IFR   Very Intensive IFR
Visi :
Ceiling :
>= 8 km
>= 3000ft
5 to 8 km
1000 to 3000 ft
1500m to 5 km
500 to 1000 ft
800 to 1500m
200 to 500 ft
< 800m
< 200 ft
Symbols :   Thunderstorms  Fog  Heavy snow  Heavy precipitations  Wind > 20 kt
SIGMETs :     Misc.  Thunderstorms  Icing  Turbulence  Mountain Waves  Volcanic Ashes






- Airport Elevation : 978 ft
- IATA code : LNZ


LOWL - Linz

CURRENT METAR :
  • 141320Z 30008KT 9999 FEW030 SCT100 10/04 Q0999 NOSIG

EXPIRED METARs :
  • 141250Z 28014KT 9999 FEW015 SCT035 09/04 Q0998 NOSIG
  • 141220Z 28023G34KT 9999 FEW013 SCT034 BKN042 09/05 Q0998 NOSIG
  • 141150Z 06006KT 9999 FEW028 SCT032 BKN036 03/03 Q0997 WS R26 BECMG 27020G40KT
  • 141120Z 04005KT 9999 FEW030 SCT032 BKN042 03/02 Q0997 WS R26 BECMG 27020G40KT
  • 141050Z 03003KT 350V100 9999 -SHRA FEW016 SCT044 BKN050 03/02 Q0996 WS R26 BECMG 27020G40KT

TAF TAF LOWL
Valid from the 14 at 12:00 until the 15 at 12:00 UTC


141115Z 1412/1512 05004KT 9999 FEW015 BKN035 TX06/1416Z TN00/1505Z
BECMG 1412/1414 27010KT
TEMPO 1412/1416 27020G40KT
BECMG 1418/1420 VRB02KT



MET'MAP, your aeronautical weather chart ! - Copyright ORBIFLY December 2007 - Disclaimer

ORBIFLY MET'MAP TEAM :

Programming & Development : Alexandra Zaïnal
Concept & original design : Baudouin d'Aumeries
Assistance for programming : Marc-Olivier Méhu
Technical & hardware support : Manuel Goepfert

Contact : metmap@orbifly.com




SOURCES & CREDITS :

   NOAA